Time;durP1;ratioP1;P1;durP2;ratioP2;P2;SDS_P1;SDS_P2;PMS_P1;PMS_P2;Temp;Humidity;BMP_temperature;BMP_pressure;BME280_temperature;BME280_humidity;BME280_pressure;Samples;Min_cycle;Max_cycle;Signal;HPM_P1;HPM_P2
2024/01/09 00:01:25;;;;;;;3.43;3.13;;;;;;;;;;5123697;27;20197;-85
2024/01/09 00:03:56;;;;;;;3.67;3.37;;;;;;;;;;5117054;28;20213;-86
2024/01/09 00:06:27;;;;;;;2.87;2.67;;;;;;;;;;5116751;28;20193;-86
2024/01/09 00:08:58;;;;;;;5.20;3.63;;;;;;;;;;5116045;28;20213;-85
2024/01/09 00:11:28;;;;;;;4.47;3.57;;;;;;;;;;5116122;28;20225;-86
2024/01/09 00:13:56;;;;;;;2.40;2.20;;;;;;;;;;5116894;28;20196;-86
2024/01/09 00:16:24;;;;;;;3.47;3.17;;;;;;;;;;5116190;28;20197;-86
2024/01/09 00:18:53;;;;;;;4.03;3.60;;;;;;;;;;5114547;28;20276;-86
2024/01/09 00:21:23;;;;;;;2.60;2.40;;;;;;;;;;5114424;28;20267;-84
2024/01/09 00:23:54;;;;;;;3.73;2.77;;;;;;;;;;5115667;28;20197;-86
2024/01/09 00:26:23;;;;;;;8.93;3.43;;;;;;;;;;5115890;28;20204;-85
2024/01/09 00:28:55;;;;;;;7.17;3.43;;;;;;;;;;5116561;28;20189;-87
2024/01/09 00:31:23;;;;;;;5.17;3.27;;;;;;;;;;5115278;28;20282;-86
2024/01/09 00:33:54;;;;;;;2.00;1.50;;;;;;;;;;5114745;28;20202;-86
2024/01/09 00:36:29;;;;;;;6.27;3.47;;;;;;;;;;5115750;28;20193;-86
2024/01/09 00:39:02;;;;;;;4.97;3.10;;;;;;;;;;5115725;28;20560;-87
2024/01/09 00:41:31;;;;;;;3.93;3.10;;;;;;;;;;5115561;28;20680;-85
2024/01/09 00:44:01;;;;;;;5.37;3.30;;;;;;;;;;5115482;28;20201;-86
2024/01/09 00:46:30;;;;;;;6.27;2.87;;;;;;;;;;5115378;28;20654;-86
2024/01/09 00:48:59;;;;;;;4.20;3.07;;;;;;;;;;5116424;28;20577;-86
2024/01/09 00:51:26;;;;;;;8.43;3.63;;;;;;;;;;5114868;28;20221;-86
2024/01/09 00:53:55;;;;;;;3.80;2.50;;;;;;;;;;5115680;28;20197;-86
2024/01/09 00:56:26;;;;;;;4.30;3.33;;;;;;;;;;5115997;28;20200;-86
2024/01/09 00:58:53;;;;;;;3.37;3.17;;;;;;;;;;5115182;28;20208;-85
2024/01/09 01:01:25;;;;;;;4.07;2.37;;;;;;;;;;5114077;28;20208;-87
2024/01/09 01:03:53;;;;;;;4.77;3.50;;;;;;;;;;5115254;28;20225;-85
2024/01/09 01:06:24;;;;;;;5.00;3.03;;;;;;;;;;5115441;28;20647;-85
2024/01/09 01:08:54;;;;;;;4.47;2.27;;;;;;;;;;5116073;28;20701;-86
2024/01/09 01:11:25;;;;;;;2.57;2.07;;;;;;;;;;5115331;28;20241;-86
2024/01/09 01:13:53;;;;;;;2.97;2.67;;;;;;;;;;5114581;28;20254;-85
2024/01/09 01:16:20;;;;;;;4.87;2.50;;;;;;;;;;5116592;28;20225;-85
2024/01/09 01:18:50;;;;;;;3.57;2.87;;;;;;;;;;5131014;28;20193;-85
2024/01/09 01:21:21;;;;;;;3.10;2.77;;;;;;;;;;5126931;28;20190;-86
2024/01/09 01:23:48;;;;;;;4.50;3.23;;;;;;;;;;5115352;28;20202;-86
2024/01/09 01:26:19;;;;;;;3.30;3.00;;;;;;;;;;5115783;28;20215;-86
2024/01/09 01:28:47;;;;;;;4.73;2.87;;;;;;;;;;5115455;28;20204;-85
2024/01/09 01:31:18;;;;;;;5.47;2.80;;;;;;;;;;5114056;28;20236;-84
2024/01/09 01:33:52;;;;;;;4.97;2.83;;;;;;;;;;5112911;28;20248;-86
2024/01/09 01:36:20;;;;;;;3.70;2.47;;;;;;;;;;5113886;28;20209;-85
2024/01/09 01:38:49;;;;;;;4.73;3.30;;;;;;;;;;5113522;28;20688;-84
2024/01/09 01:41:17;;;;;;;2.73;2.53;;;;;;;;;;5114028;28;20281;-85
2024/01/09 01:43:45;;;;;;;3.97;2.47;;;;;;;;;;5114487;28;20205;-84
2024/01/09 01:46:15;;;;;;;5.87;3.37;;;;;;;;;;5113567;28;20746;-86
2024/01/09 01:48:43;;;;;;;3.33;2.67;;;;;;;;;;5113969;28;20222;-86
2024/01/09 01:51:12;;;;;;;2.97;2.77;;;;;;;;;;5113099;28;20247;-85
2024/01/09 01:53:40;;;;;;;2.37;1.97;;;;;;;;;;5114099;28;20205;-85
2024/01/09 01:56:08;;;;;;;2.87;2.20;;;;;;;;;;5113419;28;20194;-85
2024/01/09 01:58:36;;;;;;;6.20;2.77;;;;;;;;;;5114080;28;20197;-85
2024/01/09 02:01:06;;;;;;;4.87;2.63;;;;;;;;;;5114488;28;20201;-84
2024/01/09 02:03:34;;;;;;;4.43;2.93;;;;;;;;;;5115601;28;20211;-86
2024/01/09 02:06:02;;;;;;;3.27;2.97;;;;;;;;;;5117913;28;20213;-84
2024/01/09 02:08:33;;;;;;;2.80;2.57;;;;;;;;;;5113843;28;20220;-85
2024/01/09 02:11:01;;;;;;;4.03;2.27;;;;;;;;;;5115826;28;20229;-85
2024/01/09 02:13:31;;;;;;;3.60;2.60;;;;;;;;;;5117675;28;20662;-85
2024/01/09 02:16:00;;;;;;;2.97;2.67;;;;;;;;;;5123676;28;20236;-84
2024/01/09 02:18:27;;;;;;;3.33;2.93;;;;;;;;;;5136242;28;20195;-84
2024/01/09 02:20:57;;;;;;;2.60;2.47;;;;;;;;;;5132421;28;20203;-85
2024/01/09 02:23:26;;;;;;;3.17;2.73;;;;;;;;;;5128022;28;20223;-84
2024/01/09 02:25:54;;;;;;;5.47;3.90;;;;;;;;;;5122639;28;20309;-85
2024/01/09 02:28:26;;;;;;;7.07;2.90;;;;;;;;;;5113657;28;20254;-84
2024/01/09 02:30:56;;;;;;;3.23;3.00;;;;;;;;;;5113797;28;20252;-85
2024/01/09 02:33:23;;;;;;;3.40;2.63;;;;;;;;;;5112940;28;20576;-85
2024/01/09 02:35:51;;;;;;;4.87;3.30;;;;;;;;;;5113204;28;20238;-84
2024/01/09 02:38:18;;;;;;;4.03;3.30;;;;;;;;;;5113570;28;20681;-84
2024/01/09 02:40:46;;;;;;;6.03;3.10;;;;;;;;;;5112991;28;20204;-84
2024/01/09 02:43:14;;;;;;;2.70;2.50;;;;;;;;;;5112235;28;20196;-85
2024/01/09 02:45:42;;;;;;;2.50;2.10;;;;;;;;;;5113974;28;20572;-84
2024/01/09 02:48:11;;;;;;;3.00;2.60;;;;;;;;;;5112736;28;20212;-83
2024/01/09 02:50:40;;;;;;;2.83;2.63;;;;;;;;;;5112753;28;20691;-85
2024/01/09 02:53:07;;;;;;;5.70;2.73;;;;;;;;;;5113117;28;20277;-85
2024/01/09 02:55:37;;;;;;;4.47;3.10;;;;;;;;;;5113937;28;20235;-85
2024/01/09 02:58:06;;;;;;;4.13;3.37;;;;;;;;;;5113439;28;20254;-84
2024/01/09 03:00:33;;;;;;;8.20;3.47;;;;;;;;;;5113801;28;20360;-84
2024/01/09 03:03:01;;;;;;;5.17;3.40;;;;;;;;;;5114507;28;20201;-86
2024/01/09 03:05:31;;;;;;;3.57;2.70;;;;;;;;;;5113543;28;20207;-85
2024/01/09 03:07:59;;;;;;;5.33;3.20;;;;;;;;;;5113576;28;20256;-85
2024/01/09 03:10:27;;;;;;;4.17;2.60;;;;;;;;;;5112829;28;20197;-84
2024/01/09 03:12:55;;;;;;;3.10;2.63;;;;;;;;;;5116919;28;20208;-84
2024/01/09 03:15:22;;;;;;;3.17;2.87;;;;;;;;;;5116501;28;20190;-83
2024/01/09 03:17:51;;;;;;;3.13;2.27;;;;;;;;;;5116321;28;20194;-83
2024/01/09 03:20:19;;;;;;;2.87;2.67;;;;;;;;;;5115596;28;20209;-85
2024/01/09 03:22:48;;;;;;;3.33;3.03;;;;;;;;;;5116140;28;20220;-85
2024/01/09 03:25:16;;;;;;;3.13;2.83;;;;;;;;;;5114871;28;20198;-84
2024/01/09 03:27:47;;;;;;;4.97;3.53;;;;;;;;;;5112962;28;20638;-83
2024/01/09 03:30:15;;;;;;;5.33;3.60;;;;;;;;;;5114213;28;20257;-85
2024/01/09 03:32:43;;;;;;;3.00;2.73;;;;;;;;;;5112761;28;20255;-84
2024/01/09 03:35:11;;;;;;;5.73;3.07;;;;;;;;;;5112835;28;20202;-84
2024/01/09 03:37:39;;;;;;;4.10;2.60;;;;;;;;;;5116595;28;20273;-84
2024/01/09 03:40:09;;;;;;;2.83;2.63;;;;;;;;;;5115166;28;20205;-83
2024/01/09 03:42:37;;;;;;;9.40;3.03;;;;;;;;;;5116381;28;20695;-84
2024/01/09 03:45:05;;;;;;;6.33;3.00;;;;;;;;;;5116534;28;20219;-84
2024/01/09 03:47:33;;;;;;;3.90;2.40;;;;;;;;;;5117473;28;20197;-84
2024/01/09 03:50:01;;;;;;;3.13;2.83;;;;;;;;;;5115920;28;20225;-84
2024/01/09 03:52:29;;;;;;;3.80;2.37;;;;;;;;;;5115654;28;20696;-85
2024/01/09 03:54:57;;;;;;;3.90;2.60;;;;;;;;;;5116679;28;20193;-84
2024/01/09 03:57:28;;;;;;;3.47;3.17;;;;;;;;;;5116361;28;20235;-85
2024/01/09 03:59:56;;;;;;;5.60;2.47;;;;;;;;;;5116661;28;20244;-85
2024/01/09 04:02:23;;;;;;;3.97;2.27;;;;;;;;;;5116480;28;20197;-84
2024/01/09 04:04:51;;;;;;;3.37;2.87;;;;;;;;;;5116519;28;20673;-85
2024/01/09 04:07:18;;;;;;;3.10;2.70;;;;;;;;;;5116463;28;20280;-84
2024/01/09 04:09:46;;;;;;;4.37;2.90;;;;;;;;;;5115983;28;20221;-85
2024/01/09 04:12:14;;;;;;;2.37;2.17;;;;;;;;;;5116485;28;20339;-83
2024/01/09 04:14:48;;;;;;;2.23;2.13;;;;;;;;;;5116191;28;20200;-85
2024/01/09 04:17:17;;;;;;;8.83;3.07;;;;;;;;;;5116828;28;20230;-84
2024/01/09 04:19:46;;;;;;;2.53;2.33;;;;;;;;;;5116009;28;20193;-83
2024/01/09 04:22:14;;;;;;;2.37;2.20;;;;;;;;;;5116688;28;20197;-84
2024/01/09 04:24:41;;;;;;;7.20;3.07;;;;;;;;;;5118196;28;20197;-84
2024/01/09 04:27:11;;;;;;;3.37;3.03;;;;;;;;;;5116837;28;20204;-84
2024/01/09 04:29:40;;;;;;;4.97;3.70;;;;;;;;;;5117409;28;20585;-84
2024/01/09 04:32:10;;;;;;;3.13;1.90;;;;;;;;;;5116286;28;20243;-83
2024/01/09 04:34:38;;;;;;;3.37;2.77;;;;;;;;;;5115992;28;20290;-85
2024/01/09 04:37:07;;;;;;;2.47;2.27;;;;;;;;;;5116017;28;20238;-84
2024/01/09 04:39:37;;;;;;;1.77;1.67;;;;;;;;;;5116494;28;20276;-83
2024/01/09 04:42:05;;;;;;;4.67;2.30;;;;;;;;;;5115542;28;20271;-84
2024/01/09 04:44:33;;;;;;;5.43;2.83;;;;;;;;;;5116523;28;20216;-84
2024/01/09 04:47:02;;;;;;;2.47;2.37;;;;;;;;;;5120372;28;20198;-84
2024/01/09 04:49:31;;;;;;;4.30;2.40;;;;;;;;;;5117176;28;20233;-83
2024/01/09 04:51:59;;;;;;;2.37;2.27;;;;;;;;;;5108091;28;20221;-84
2024/01/09 04:54:27;;;;;;;4.03;2.23;;;;;;;;;;5119589;28;20204;-84
2024/01/09 04:56:55;;;;;;;3.20;2.93;;;;;;;;;;5118988;28;20193;-84
2024/01/09 04:59:22;;;;;;;1.83;1.50;;;;;;;;;;5118659;28;20212;-84
2024/01/09 05:01:51;;;;;;;4.47;2.43;;;;;;;;;;5118826;28;20725;-83
2024/01/09 05:04:18;;;;;;;14.20;2.07;;;;;;;;;;5121571;28;20299;-84
2024/01/09 05:06:50;;;;;;;4.40;3.07;;;;;;;;;;5120558;28;20668;-84
2024/01/09 05:09:23;;;;;;;2.57;2.33;;;;;;;;;;5121441;28;20737;-83
2024/01/09 05:11:56;;;;;;;4.00;2.17;;;;;;;;;;5121019;28;20243;-84
2024/01/09 05:14:27;;;;;;;1.83;1.60;;;;;;;;;;5122074;28;20226;-84
2024/01/09 05:16:58;;;;;;;4.47;2.70;;;;;;;;;;5119758;28;20208;-84
2024/01/09 05:22:18;;;;;;;2.17;2.07;;;;;;;;;;5102345;28;20665;-84
2024/01/09 05:24:46;;;;;;;2.43;2.20;;;;;;;;;;5113417;28;20197;-84
2024/01/09 05:27:16;;;;;;;1.90;1.80;;;;;;;;;;5114416;28;20208;-85
2024/01/09 05:29:45;;;;;;;2.50;2.30;;;;;;;;;;5115205;28;20205;-85
2024/01/09 05:32:12;;;;;;;2.07;1.93;;;;;;;;;;5115262;28;20716;-84
2024/01/09 05:34:44;;;;;;;2.50;2.00;;;;;;;;;;5115886;28;20297;-86
2024/01/09 05:37:11;;;;;;;2.50;2.23;;;;;;;;;;5114844;28;20185;-85
2024/01/09 05:39:44;;;;;;;3.30;1.50;;;;;;;;;;5114543;28;20284;-84
2024/01/09 05:42:11;;;;;;;1.87;1.40;;;;;;;;;;5113901;28;20225;-84
2024/01/09 05:44:47;;;;;;;1.33;1.23;;;;;;;;;;5115492;28;20280;-84
2024/01/09 05:47:17;;;;;;;1.50;1.40;;;;;;;;;;5115640;28;20589;-84
2024/01/09 05:49:45;;;;;;;1.43;1.07;;;;;;;;;;5114726;28;20274;-85
2024/01/09 05:52:17;;;;;;;0.97;0.87;;;;;;;;;;5114942;28;20282;-85
2024/01/09 05:54:50;;;;;;;1.20;1.10;;;;;;;;;;5114652;28;20197;-84
2024/01/09 05:57:18;;;;;;;1.10;1.10;;;;;;;;;;5114952;28;20261;-84
2024/01/09 05:59:46;;;;;;;1.13;1.07;;;;;;;;;;5114341;28;20225;-84
2024/01/09 06:02:13;;;;;;;2.10;1.30;;;;;;;;;;5114374;28;20185;-84
2024/01/09 06:04:41;;;;;;;2.20;0.83;;;;;;;;;;5114408;28;20224;-85
2024/01/09 06:07:18;;;;;;;1.47;1.10;;;;;;;;;;5114463;28;20217;-84
2024/01/09 06:09:47;;;;;;;1.77;1.67;;;;;;;;;;5116207;28;20236;-84
2024/01/09 06:12:20;;;;;;;1.53;1.43;;;;;;;;;;5115746;28;20236;-85
2024/01/09 06:14:51;;;;;;;2.60;1.10;;;;;;;;;;5114466;28;20201;-84
2024/01/09 06:17:19;;;;;;;1.10;1.00;;;;;;;;;;5114225;28;20205;-85
2024/01/09 06:19:52;;;;;;;1.23;1.20;;;;;;;;;;5113438;28;20215;-84
2024/01/09 06:22:20;;;;;;;0.87;0.87;;;;;;;;;;5114200;28;20532;-84
2024/01/09 06:24:55;;;;;;;1.20;1.20;;;;;;;;;;5115214;27;20661;-84
2024/01/09 06:27:26;;;;;;;1.23;1.13;;;;;;;;;;5114722;28;20199;-84
2024/01/09 06:29:56;;;;;;;1.67;1.63;;;;;;;;;;5114175;28;20217;-83
2024/01/09 06:32:24;;;;;;;0.77;0.70;;;;;;;;;;5114392;28;20312;-84
2024/01/09 06:34:55;;;;;;;1.27;1.07;;;;;;;;;;5114407;28;20197;-84
2024/01/09 06:37:26;;;;;;;0.93;0.93;;;;;;;;;;5114361;28;20653;-83
2024/01/09 06:39:57;;;;;;;1.80;1.70;;;;;;;;;;5117603;28;20270;-84
2024/01/09 06:42:37;;;;;;;1.80;1.27;;;;;;;;;;5128403;28;20212;-83
2024/01/09 06:47:51;;;;;;;0.87;0.87;;;;;;;;;;5124576;28;20201;-84
2024/01/09 06:50:23;;;;;;;2.23;1.30;;;;;;;;;;5114282;28;20282;-84
2024/01/09 06:52:51;;;;;;;1.43;1.43;;;;;;;;;;5114987;28;20337;-84
2024/01/09 06:55:23;;;;;;;0.67;0.67;;;;;;;;;;5113355;28;20196;-83
2024/01/09 06:57:51;;;;;;;3.10;1.73;;;;;;;;;;5114121;28;20221;-84
2024/01/09 07:00:21;;;;;;;1.43;1.43;;;;;;;;;;5102636;28;20209;-85
2024/01/09 07:02:48;;;;;;;1.40;1.30;;;;;;;;;;5114159;28;20197;-83
2024/01/09 07:05:17;;;;;;;4.47;1.97;;;;;;;;;;5114421;28;20258;-84
2024/01/09 07:07:45;;;;;;;1.30;1.20;;;;;;;;;;5114258;28;20201;-84
2024/01/09 07:10:13;;;;;;;2.00;1.90;;;;;;;;;;5113200;28;20261;-84
2024/01/09 07:12:43;;;;;;;1.10;1.10;;;;;;;;;;5116178;28;20235;-84
2024/01/09 07:15:13;;;;;;;1.50;1.40;;;;;;;;;;5098006;28;20251;-83
2024/01/09 07:17:42;;;;;;;1.43;1.33;;;;;;;;;;5097343;28;20234;-83
2024/01/09 07:20:10;;;;;;;1.27;1.20;;;;;;;;;;5097010;28;20674;-83
2024/01/09 07:22:37;;;;;;;1.90;1.80;;;;;;;;;;5097238;28;20204;-84
2024/01/09 07:25:05;;;;;;;1.13;1.13;;;;;;;;;;5096954;28;20202;-85
2024/01/09 07:27:33;;;;;;;3.43;2.33;;;;;;;;;;5096475;28;20576;-85
2024/01/09 07:30:16;;;;;;;2.67;1.83;;;;;;;;;;5096902;28;20201;-84
2024/01/09 07:32:43;;;;;;;1.40;1.23;;;;;;;;;;5096791;28;20232;-84
2024/01/09 07:35:11;;;;;;;3.90;2.00;;;;;;;;;;5096936;28;20197;-84
2024/01/09 07:37:39;;;;;;;2.57;2.43;;;;;;;;;;5096854;28;20190;-85
2024/01/09 07:40:08;;;;;;;1.53;1.50;;;;;;;;;;5097385;28;20202;-84
2024/01/09 07:42:36;;;;;;;2.60;2.40;;;;;;;;;;5097743;28;20192;-84
2024/01/09 07:45:05;;;;;;;2.07;1.23;;;;;;;;;;5096369;28;20231;-84
2024/01/09 07:47:32;;;;;;;1.13;1.13;;;;;;;;;;5096748;28;20251;-84
2024/01/09 07:50:00;;;;;;;7.70;1.10;;;;;;;;;;5097005;28;20295;-84
2024/01/09 07:52:28;;;;;;;2.30;0.83;;;;;;;;;;5097643;28;20230;-85
2024/01/09 07:54:56;;;;;;;3.63;2.20;;;;;;;;;;5096924;28;20213;-83
2024/01/09 07:57:24;;;;;;;1.07;1.07;;;;;;;;;;5096509;28;20696;-83
2024/01/09 07:59:53;;;;;;;4.77;1.77;;;;;;;;;;5096517;28;20213;-84
2024/01/09 08:02:23;;;;;;;1.60;1.50;;;;;;;;;;5097270;28;20194;-84
2024/01/09 08:04:50;;;;;;;1.77;1.20;;;;;;;;;;5095994;28;20270;-83
2024/01/09 08:07:18;;;;;;;1.70;1.70;;;;;;;;;;5096203;28;20218;-84
2024/01/09 08:09:46;;;;;;;1.27;1.27;;;;;;;;;;5095935;28;20240;-83
2024/01/09 08:12:14;;;;;;;6.33;1.50;;;;;;;;;;5095005;28;20208;-83
2024/01/09 08:14:43;;;;;;;1.00;0.87;;;;;;;;;;5094020;28;20197;-84
2024/01/09 08:17:10;;;;;;;1.60;1.30;;;;;;;;;;5094635;28;20222;-83
2024/01/09 08:19:41;;;;;;;2.27;2.07;;;;;;;;;;5096375;28;20213;-84
2024/01/09 08:22:08;;;;;;;0.93;0.93;;;;;;;;;;5096352;28;20198;-84
2024/01/09 08:24:37;;;;;;;4.73;1.40;;;;;;;;;;5098004;28;20190;-85
2024/01/09 08:27:05;;;;;;;1.20;1.03;;;;;;;;;;5096150;28;20281;-84
2024/01/09 08:29:32;;;;;;;1.07;0.93;;;;;;;;;;5096154;28;20459;-85
2024/01/09 08:32:01;;;;;;;1.63;1.17;;;;;;;;;;5096266;28;20658;-83
2024/01/09 08:34:29;;;;;;;1.47;1.37;;;;;;;;;;5096017;28;20247;-84
2024/01/09 08:37:02;;;;;;;1.53;1.30;;;;;;;;;;5095960;28;20198;-84
2024/01/09 08:39:31;;;;;;;1.50;1.50;;;;;;;;;;5097420;28;20579;-84
2024/01/09 08:42:00;;;;;;;1.63;1.53;;;;;;;;;;5097293;28;20311;-84
2024/01/09 08:44:27;;;;;;;3.37;1.93;;;;;;;;;;5097184;28;20202;-83
2024/01/09 08:46:55;;;;;;;2.40;1.27;;;;;;;;;;5101439;28;20197;-83
2024/01/09 08:49:22;;;;;;;1.20;1.20;;;;;;;;;;5110908;28;20222;-83
2024/01/09 08:51:50;;;;;;;3.13;0.93;;;;;;;;;;5117269;28;20216;-83
2024/01/09 08:54:22;;;;;;;3.07;1.93;;;;;;;;;;5114477;28;20225;-84
2024/01/09 08:56:49;;;;;;;1.33;1.33;;;;;;;;;;5098149;28;20294;-84
2024/01/09 08:59:18;;;;;;;1.77;1.47;;;;;;;;;;5096694;28;20205;-83
2024/01/09 09:01:45;;;;;;;1.53;1.37;;;;;;;;;;5096008;28;20261;-85
2024/01/09 09:04:13;;;;;;;1.40;1.33;;;;;;;;;;5096768;28;20198;-84
2024/01/09 09:06:40;;;;;;;2.67;1.50;;;;;;;;;;5098178;28;20226;-84
2024/01/09 09:09:10;;;;;;;4.60;1.93;;;;;;;;;;5097187;28;20217;-85
2024/01/09 09:11:39;;;;;;;3.43;2.60;;;;;;;;;;5096358;28;20658;-84
2024/01/09 09:14:07;;;;;;;2.20;2.07;;;;;;;;;;5096018;28;20624;-84
2024/01/09 09:16:36;;;;;;;2.57;1.63;;;;;;;;;;5099105;28;20235;-84
2024/01/09 09:19:04;;;;;;;0.63;0.63;;;;;;;;;;5105250;28;20205;-84
2024/01/09 09:21:33;;;;;;;1.90;1.80;;;;;;;;;;5116325;28;20210;-84
2024/01/09 09:24:01;;;;;;;3.20;2.10;;;;;;;;;;5104223;28;20194;-83
2024/01/09 09:26:29;;;;;;;1.57;1.57;;;;;;;;;;5095465;28;20350;-83
2024/01/09 09:28:59;;;;;;;1.10;1.10;;;;;;;;;;5095004;28;20290;-84
2024/01/09 09:31:27;;;;;;;2.07;1.97;;;;;;;;;;5095207;28;20274;-85
2024/01/09 09:33:55;;;;;;;1.53;1.43;;;;;;;;;;5094461;28;20225;-83
2024/01/09 09:36:23;;;;;;;3.47;2.67;;;;;;;;;;5096770;28;20225;-83
2024/01/09 09:41:38;;;;;;;2.07;1.97;;;;;;;;;;5087576;28;20198;-84
2024/01/09 09:44:09;;;;;;;2.23;1.43;;;;;;;;;;5095230;28;20202;-84
2024/01/09 09:46:40;;;;;;;1.53;1.43;;;;;;;;;;5095310;28;20204;-84
2024/01/09 09:49:08;;;;;;;1.87;1.77;;;;;;;;;;5095351;28;20567;-84
2024/01/09 09:51:38;;;;;;;6.00;1.70;;;;;;;;;;5094506;28;20202;-85
2024/01/09 09:54:07;;;;;;;1.03;1.03;;;;;;;;;;5094420;28;20577;-83
2024/01/09 09:56:35;;;;;;;1.37;1.30;;;;;;;;;;5094734;28;20290;-83
2024/01/09 09:59:02;;;;;;;1.33;1.33;;;;;;;;;;5095199;28;20202;-84
2024/01/09 10:01:34;;;;;;;3.13;1.63;;;;;;;;;;5095121;28;20665;-84
2024/01/09 10:04:10;;;;;;;3.60;2.13;;;;;;;;;;5094962;28;20586;-83
2024/01/09 10:06:39;;;;;;;2.73;1.47;;;;;;;;;;5094724;28;20262;-85
2024/01/09 10:09:10;;;;;;;1.43;1.33;;;;;;;;;;5095037;28;20221;-84
2024/01/09 10:11:38;;;;;;;2.87;1.43;;;;;;;;;;5094657;28;20224;-84
2024/01/09 10:14:06;;;;;;;1.43;1.27;;;;;;;;;;5094274;28;20241;-84
2024/01/09 10:16:49;;;;;;;3.17;1.63;;;;;;;;;;5094091;28;20282;-84
2024/01/09 10:19:23;;;;;;;1.73;1.63;;;;;;;;;;5095357;28;20209;-85
2024/01/09 10:24:37;;;;;;;1.70;1.60;;;;;;;;;;5090714;28;20568;-84
2024/01/09 10:27:10;;;;;;;6.70;1.80;;;;;;;;;;5094268;28;20205;-84
2024/01/09 10:29:45;;;;;;;4.03;2.33;;;;;;;;;;5094516;28;20221;-84
2024/01/09 10:32:19;;;;;;;3.27;2.20;;;;;;;;;;5094595;28;20193;-83
2024/01/09 10:34:52;;;;;;;4.90;1.97;;;;;;;;;;5092375;28;20224;-84
2024/01/09 10:37:21;;;;;;;2.00;1.40;;;;;;;;;;5094651;28;20716;-84
2024/01/09 10:39:50;;;;;;;3.57;1.97;;;;;;;;;;5096460;28;20202;-84
2024/01/09 10:42:19;;;;;;;5.93;2.63;;;;;;;;;;5104396;28;20281;-83
2024/01/09 10:44:47;;;;;;;8.07;2.73;;;;;;;;;;5101209;28;20352;-85
2024/01/09 10:47:17;;;;;;;6.10;2.30;;;;;;;;;;5094844;28;20209;-84
2024/01/09 10:49:49;;;;;;;2.23;2.07;;;;;;;;;;5094552;28;20605;-84
2024/01/09 10:52:17;;;;;;;3.50;1.43;;;;;;;;;;5094269;28;20221;-84
2024/01/09 10:54:45;;;;;;;2.17;2.03;;;;;;;;;;5093705;28;20226;-83
2024/01/09 10:57:15;;;;;;;4.23;2.50;;;;;;;;;;5103301;28;20186;-83
2024/01/09 10:59:44;;;;;;;2.37;1.63;;;;;;;;;;5104554;28;20187;-83
2024/01/09 11:02:15;;;;;;;4.83;1.97;;;;;;;;;;5108644;28;20209;-83
2024/01/09 11:04:45;;;;;;;3.10;1.80;;;;;;;;;;5111305;28;20198;-84
2024/01/09 11:07:14;;;;;;;2.43;2.23;;;;;;;;;;5109954;28;20198;-85
2024/01/09 11:09:44;;;;;;;5.40;2.10;;;;;;;;;;5096327;28;20217;-84
2024/01/09 11:12:14;;;;;;;2.10;1.87;;;;;;;;;;5094338;28;20198;-83
2024/01/09 11:14:43;;;;;;;3.97;2.47;;;;;;;;;;5093728;28;20624;-83
2024/01/09 11:17:11;;;;;;;3.57;2.13;;;;;;;;;;5094239;28;20670;-86
2024/01/09 11:19:40;;;;;;;2.90;1.83;;;;;;;;;;5093434;28;20209;-84
2024/01/09 11:22:17;;;;;;;3.43;3.20;;;;;;;;;;5093006;28;20198;-84
2024/01/09 11:24:49;;;;;;;13.30;2.00;;;;;;;;;;5093518;28;20198;-83
2024/01/09 11:27:21;;;;;;;2.73;1.83;;;;;;;;;;5094468;28;20595;-84
2024/01/09 11:29:51;;;;;;;3.77;2.87;;;;;;;;;;5093854;28;20202;-83
2024/01/09 11:32:19;;;;;;;1.43;1.37;;;;;;;;;;5089105;28;20218;-81
2024/01/09 11:34:48;;;;;;;1.80;1.60;;;;;;;;;;5070932;28;20296;-84
2024/01/09 11:37:19;;;;;;;4.23;2.97;;;;;;;;;;5080395;28;20682;-83
2024/01/09 11:39:49;;;;;;;1.27;1.17;;;;;;;;;;5091747;28;20483;-84
2024/01/09 11:42:17;;;;;;;2.30;2.07;;;;;;;;;;5092586;28;20234;-84
2024/01/09 11:44:44;;;;;;;8.67;2.80;;;;;;;;;;5092592;28;20275;-84
2024/01/09 11:47:12;;;;;;;2.00;1.80;;;;;;;;;;5092088;28;20640;-84
2024/01/09 11:49:39;;;;;;;2.47;1.90;;;;;;;;;;5094046;28;20252;-82
2024/01/09 11:52:10;;;;;;;0.57;0.57;;;;;;;;;;5093878;28;20214;-83
2024/01/09 11:54:39;;;;;;;3.37;2.33;;;;;;;;;;5093311;28;20306;-83
2024/01/09 11:57:07;;;;;;;3.57;2.73;;;;;;;;;;5094078;28;20222;-82
2024/01/09 11:59:35;;;;;;;2.40;1.93;;;;;;;;;;5098675;28;20217;-84
2024/01/09 12:02:08;;;;;;;1.87;1.57;;;;;;;;;;5097021;28;20304;-84
2024/01/09 12:04:36;;;;;;;6.27;2.10;;;;;;;;;;5097886;28;20218;-83
2024/01/09 12:07:04;;;;;;;8.83;2.37;;;;;;;;;;5095905;28;20279;-82
2024/01/09 12:09:32;;;;;;;4.93;2.10;;;;;;;;;;5095180;28;20248;-83
2024/01/09 12:12:07;;;;;;;1.70;1.63;;;;;;;;;;5095928;28;20299;-83
2024/01/09 12:14:37;;;;;;;1.07;1.07;;;;;;;;;;5097497;28;20302;-83
2024/01/09 12:17:18;;;;;;;2.23;1.97;;;;;;;;;;5096569;28;20279;-82
2024/01/09 12:19:47;;;;;;;1.30;1.20;;;;;;;;;;5098126;28;20218;-83
2024/01/09 12:22:16;;;;;;;3.73;2.03;;;;;;;;;;5097038;28;20250;-83
2024/01/09 12:24:45;;;;;;;1.50;1.43;;;;;;;;;;5093691;28;20291;-83
2024/01/09 12:27:14;;;;;;;2.13;2.03;;;;;;;;;;5094543;28;20222;-84
2024/01/09 12:29:44;;;;;;;1.10;1.10;;;;;;;;;;5094647;28;20236;-83
2024/01/09 12:32:13;;;;;;;3.90;1.17;;;;;;;;;;5095657;28;20233;-83
2024/01/09 12:34:41;;;;;;;0.87;0.87;;;;;;;;;;5096317;28;20263;-84
2024/01/09 12:37:09;;;;;;;2.43;2.23;;;;;;;;;;5096748;28;20233;-83
2024/01/09 12:39:39;;;;;;;1.37;1.13;;;;;;;;;;5096377;28;20225;-82
2024/01/09 12:42:07;;;;;;;1.57;1.57;;;;;;;;;;5096058;28;20237;-84
2024/01/09 12:44:37;;;;;;;4.73;1.63;;;;;;;;;;5095340;28;20229;-84
2024/01/09 12:47:05;;;;;;;1.80;1.70;;;;;;;;;;5094569;28;20222;-83
2024/01/09 12:49:48;;;;;;;2.10;1.77;;;;;;;;;;5093944;28;20249;-85
2024/01/09 12:52:17;;;;;;;2.80;1.47;;;;;;;;;;5095682;28;20319;-83
2024/01/09 12:54:45;;;;;;;1.73;1.60;;;;;;;;;;5093404;28;20233;-85
2024/01/09 12:57:13;;;;;;;1.60;1.43;;;;;;;;;;5095411;28;20218;-83
2024/01/09 12:59:43;;;;;;;1.40;1.30;;;;;;;;;;5093166;28;20228;-83
2024/01/09 13:02:10;;;;;;;1.20;0.87;;;;;;;;;;5096775;28;20244;-85
2024/01/09 13:04:39;;;;;;;0.93;0.93;;;;;;;;;;5095139;28;20225;-83
2024/01/09 13:07:07;;;;;;;1.10;1.10;;;;;;;;;;5098744;28;20222;-83
2024/01/09 13:09:36;;;;;;;1.37;1.10;;;;;;;;;;5099255;28;20226;-83
2024/01/09 13:12:04;;;;;;;3.50;1.17;;;;;;;;;;5104468;28;20210;-85
2024/01/09 13:14:31;;;;;;;0.70;0.70;;;;;;;;;;5113810;28;20225;-83
2024/01/09 13:17:01;;;;;;;1.97;1.90;;;;;;;;;;5111631;28;20222;-85
2024/01/09 13:19:27;;;;;;;0.40;0.40;;;;;;;;;;5100048;28;20226;-84
2024/01/09 13:21:55;;;;;;;1.30;1.27;;;;;;;;;;5095335;28;20230;-85
2024/01/09 13:24:23;;;;;;;1.27;1.27;;;;;;;;;;5093648;28;20307;-84
2024/01/09 13:26:51;;;;;;;2.53;0.90;;;;;;;;;;5094236;28;20304;-83
2024/01/09 13:29:19;;;;;;;0.70;0.70;;;;;;;;;;5094939;28;20248;-84
2024/01/09 13:31:47;;;;;;;1.07;0.83;;;;;;;;;;5093689;28;20234;-83
2024/01/09 13:34:18;;;;;;;1.30;1.23;;;;;;;;;;5094322;28;20280;-83
2024/01/09 13:36:48;;;;;;;0.40;0.40;;;;;;;;;;5092885;28;20317;-84
2024/01/09 13:39:17;;;;;;;0.77;0.77;;;;;;;;;;5095987;28;20214;-83
2024/01/09 13:41:47;;;;;;;1.13;1.13;;;;;;;;;;5102382;28;20225;-84
2024/01/09 13:44:16;;;;;;;0.40;0.40;;;;;;;;;;5102799;28;20309;-84
2024/01/09 13:46:44;;;;;;;2.20;1.07;;;;;;;;;;5098314;28;20234;-82
2024/01/09 13:49:13;;;;;;;1.03;1.03;;;;;;;;;;5100466;28;20233;-84
2024/01/09 13:51:44;;;;;;;1.17;1.13;;;;;;;;;;5100172;28;20224;-84
2024/01/09 13:54:13;;;;;;;0.83;0.80;;;;;;;;;;5101135;28;20300;-83
2024/01/09 13:56:42;;;;;;;2.77;0.93;;;;;;;;;;5099850;28;20720;-84
2024/01/09 13:59:19;;;;;;;0.83;0.83;;;;;;;;;;5100058;28;20230;-82
2024/01/09 14:01:47;;;;;;;0.50;0.50;;;;;;;;;;5099755;28;20305;-83
2024/01/09 14:04:16;;;;;;;0.90;0.90;;;;;;;;;;5100977;28;20332;-83
2024/01/09 14:06:49;;;;;;;1.00;1.00;;;;;;;;;;5099441;28;20221;-83
2024/01/09 14:09:27;;;;;;;1.03;0.80;;;;;;;;;;5103773;28;20247;-83
2024/01/09 14:12:05;;;;;;;1.03;1.03;;;;;;;;;;5103383;28;20218;-82
2024/01/09 14:14:38;;;;;;;0.93;0.93;;;;;;;;;;5103558;28;20241;-83
2024/01/09 14:17:06;;;;;;;2.00;1.23;;;;;;;;;;5103178;28;20366;-84
2024/01/09 14:19:34;;;;;;;0.50;0.50;;;;;;;;;;5103143;28;20334;-84
2024/01/09 14:22:04;;;;;;;1.33;0.87;;;;;;;;;;5106747;28;20213;-83
2024/01/09 14:24:32;;;;;;;1.30;0.70;;;;;;;;;;5105448;28;20245;-83
2024/01/09 14:27:02;;;;;;;1.07;1.00;;;;;;;;;;5104860;28;20230;-83
2024/01/09 14:29:29;;;;;;;2.17;2.07;;;;;;;;;;5106157;28;20213;-83
2024/01/09 14:34:42;;;;;;;1.73;1.37;;;;;;;;;;5099277;28;20229;-83
2024/01/09 14:37:13;;;;;;;1.10;1.10;;;;;;;;;;5097437;28;20710;-82
2024/01/09 14:39:41;;;;;;;1.03;1.03;;;;;;;;;;5097037;28;20240;-84
2024/01/09 14:42:12;;;;;;;0.60;0.60;;;;;;;;;;5099273;28;20236;-82
2024/01/09 14:44:41;;;;;;;2.33;1.70;;;;;;;;;;5099231;28;20251;-84
2024/01/09 14:47:10;;;;;;;1.90;1.80;;;;;;;;;;5095235;28;20305;-84
2024/01/09 14:49:55;;;;;;;1.17;1.17;;;;;;;;;;5093031;28;20705;-85
2024/01/09 14:52:25;;;;;;;1.60;0.83;;;;;;;;;;5093689;28;20214;-83
2024/01/09 14:54:52;;;;;;;0.80;0.80;;;;;;;;;;5092447;28;20234;-84
2024/01/09 14:57:21;;;;;;;0.60;0.60;;;;;;;;;;5093780;28;20304;-82
2024/01/09 14:59:49;;;;;;;0.97;0.97;;;;;;;;;;5093043;28;20332;-84
2024/01/09 15:02:16;;;;;;;0.93;0.93;;;;;;;;;;5093704;28;20260;-83
2024/01/09 15:04:44;;;;;;;0.40;0.40;;;;;;;;;;5093971;28;20256;-83
2024/01/09 15:07:12;;;;;;;0.73;0.50;;;;;;;;;;5093815;28;20256;-83
2024/01/09 15:09:42;;;;;;;0.60;0.60;;;;;;;;;;5098744;28;20221;-85